Terminal Aerodrome Forecast
Issued by NWS Missoula, MT

Home | Current Version | Previous Version | Text Only | Print | Product List | Glossary On
Versions: 1 2 3 4 5 6 7 8 9 10 11 12
000
FTUS45 KMSO 232300
TAFGPI
TAF
KGPI 232320Z 2400/2424 26015G30KT P6SM VCSH BKN050
     FM240200 24010KT P6SM BKN060
     FM240400 19007KT P6SM OVC060
     FM241600 18010KT P6SM -SHRA OVC040=

USA.gov is the U.S. government's official web portal to all federal, state and local government web resources and services.